createdAt,value
2018-08-27T00:01:19.620Z,17.30
2018-08-27T00:03:47.607Z,19.02
2018-08-27T00:06:15.573Z,20.05
2018-08-27T00:08:43.547Z,19.37
2018-08-27T00:11:11.604Z,18.20
2018-08-27T00:13:39.593Z,17.98
2018-08-27T00:16:07.599Z,19.55
2018-08-27T00:18:35.611Z,18.32
2018-08-27T00:21:03.612Z,16.95
2018-08-27T00:23:31.588Z,18.42
2018-08-27T00:25:59.573Z,17.57
2018-08-27T00:28:27.654Z,16.25
2018-08-27T00:30:55.657Z,17.42
2018-08-27T00:33:23.666Z,17.35
2018-08-27T00:35:51.662Z,16.57
2018-08-27T00:38:19.650Z,15.18
2018-08-27T00:40:47.633Z,15.55
2018-08-27T00:43:15.640Z,15.30
2018-08-27T00:45:43.685Z,14.90
2018-08-27T00:48:11.655Z,15.05
2018-08-27T00:50:39.625Z,16.42
2018-08-27T00:53:08.109Z,14.90
2018-08-27T00:55:36.098Z,15.53
2018-08-27T00:58:04.104Z,14.38
2018-08-27T01:00:32.077Z,14.93
2018-08-27T01:03:00.117Z,15.32
2018-08-27T01:05:28.131Z,14.55
2018-08-27T01:07:56.104Z,14.75
2018-08-27T01:10:24.077Z,15.80
2018-08-27T01:12:52.099Z,15.13
2018-08-27T01:15:20.097Z,16.70
2018-08-27T01:17:48.119Z,15.63
2018-08-27T01:20:16.136Z,17.70
2018-08-27T01:22:44.115Z,15.30
2018-08-27T01:25:12.130Z,14.25
2018-08-27T01:27:40.156Z,13.48
2018-08-27T01:30:08.143Z,15.15
2018-08-27T01:32:36.121Z,14.20
2018-08-27T01:35:04.144Z,15.43
2018-08-27T01:37:32.125Z,14.87
2018-08-27T01:40:00.117Z,13.95
2018-08-27T01:42:28.318Z,17.10
2018-08-27T01:44:56.662Z,16.43
2018-08-27T01:47:25.050Z,16.65
2018-08-27T01:49:53.321Z,16.87
2018-08-27T01:52:21.573Z,16.43
2018-08-27T01:54:49.889Z,16.90
2018-08-27T01:57:18.163Z,16.42
2018-08-27T01:59:46.389Z,16.42
2018-08-27T02:02:14.625Z,18.20
2018-08-27T02:04:42.849Z,18.37
2018-08-27T02:07:11.129Z,18.30
2018-08-27T02:09:39.386Z,17.95
2018-08-27T02:12:07.613Z,18.50
2018-08-27T02:14:35.855Z,18.60
2018-08-27T02:17:04.159Z,18.12
2018-08-27T02:19:32.415Z,19.25
2018-08-27T02:22:00.645Z,20.07
2018-08-27T02:24:28.865Z,18.90
2018-08-27T02:26:57.165Z,18.30
2018-08-27T02:29:25.417Z,18.47
2018-08-27T02:31:53.685Z,18.27
2018-08-27T02:34:21.913Z,18.87
2018-08-27T02:36:50.267Z,16.70
2018-08-27T02:39:18.613Z,16.73
2018-08-27T02:44:21.445Z,16.33
2018-08-27T02:46:49.711Z,16.70
2018-08-27T02:49:17.915Z,16.10
2018-08-27T02:51:46.212Z,16.42
2018-08-27T02:54:14.425Z,16.87
2018-08-27T02:56:42.645Z,17.70
2018-08-27T02:59:11.061Z,15.37
2018-08-27T03:01:39.282Z,16.07
2018-08-27T03:04:07.759Z,15.30
2018-08-27T03:06:36.033Z,15.80
2018-08-27T03:09:05.701Z,14.50
2018-08-27T03:11:34.028Z,13.80
2018-08-27T03:14:02.333Z,14.13
2018-08-27T03:16:30.645Z,13.93
2018-08-27T03:18:58.857Z,15.30
2018-08-27T03:21:27.218Z,15.27
2018-08-27T03:23:55.470Z,15.57
2018-08-27T03:26:23.696Z,14.07
2018-08-27T03:28:52.047Z,15.40
2018-08-27T03:31:20.281Z,16.33
2018-08-27T03:33:48.556Z,15.87
2018-08-27T03:36:16.855Z,14.47
2018-08-27T03:38:45.095Z,14.97
2018-08-27T03:41:13.377Z,17.93
2018-08-27T03:43:41.601Z,18.20
2018-08-27T03:46:09.901Z,16.80
2018-08-27T03:48:38.146Z,18.83
2018-08-27T03:51:06.117Z,21.70
2018-08-27T03:53:34.091Z,21.87
2018-08-27T03:56:02.181Z,20.40
2018-08-27T03:58:30.449Z,25.10
2018-08-27T04:00:58.734Z,20.57
2018-08-27T04:03:26.969Z,20.53
2018-08-27T04:05:55.193Z,20.10
2018-08-27T04:08:23.499Z,20.03
2018-08-27T04:10:51.869Z,23.77
2018-08-27T04:13:20.163Z,23.03
2018-08-27T04:15:48.380Z,22.70
2018-08-27T04:18:16.593Z,22.23
2018-08-27T04:20:44.873Z,21.73
2018-08-27T04:23:12.837Z,19.63
2018-08-27T04:25:40.815Z,27.20
2018-08-27T04:28:08.812Z,20.73
2018-08-27T04:30:36.840Z,21.83
2018-08-27T04:33:04.906Z,20.20
2018-08-27T04:35:32.913Z,19.67
2018-08-27T04:38:00.895Z,21.03
2018-08-27T04:40:29.020Z,18.40
2018-08-27T04:42:57.025Z,19.80
2018-08-27T04:45:24.994Z,17.93
2018-08-27T04:47:53.243Z,20.07
2018-08-27T04:50:21.471Z,15.77
2018-08-27T04:52:49.492Z,14.63
2018-08-27T04:55:17.626Z,13.60
2018-08-27T04:57:45.617Z,14.37
2018-08-27T05:00:19.637Z,13.70
2018-08-27T05:02:47.610Z,16.37
2018-08-27T05:05:15.589Z,18.43
2018-08-27T05:07:43.569Z,15.40
2018-08-27T05:10:11.554Z,11.63
2018-08-27T05:12:39.809Z,13.20
2018-08-27T05:15:08.037Z,14.47
2018-08-27T05:17:36.298Z,15.60
2018-08-27T05:20:04.498Z,12.60
2018-08-27T05:22:32.742Z,12.60
2018-08-27T05:25:01.021Z,12.97
2018-08-27T05:27:29.389Z,16.37
2018-08-27T05:29:57.581Z,10.37
2018-08-27T05:32:25.811Z,10.93
2018-08-27T05:34:54.062Z,9.87
2018-08-27T05:37:22.097Z,14.33
2018-08-27T05:39:50.399Z,10.23
2018-08-27T05:42:18.611Z,9.83
2018-08-27T05:44:46.821Z,16.47
2018-08-27T05:47:15.039Z,13.63
2018-08-27T05:49:43.290Z,13.90
2018-08-27T05:52:11.550Z,11.50
2018-08-27T05:54:39.899Z,14.73
2018-08-27T05:57:08.196Z,10.20
2018-08-27T05:59:36.477Z,9.30
2018-08-27T06:02:04.794Z,7.33
2018-08-27T06:04:32.994Z,9.93
2018-08-27T06:07:01.221Z,9.30
2018-08-27T06:09:29.471Z,11.17
2018-08-27T06:11:57.690Z,8.07
2018-08-27T06:14:26.002Z,11.70
2018-08-27T06:16:54.303Z,9.73
2018-08-27T06:19:22.587Z,7.40
2018-08-27T06:21:50.937Z,9.30
2018-08-27T06:24:19.117Z,11.13
2018-08-27T06:26:47.359Z,6.90
2018-08-27T06:29:15.717Z,12.67
2018-08-27T06:31:44.009Z,8.87
2018-08-27T06:34:12.198Z,8.67
2018-08-27T06:36:40.453Z,8.80
2018-08-27T06:39:09.883Z,9.10
2018-08-27T06:41:38.097Z,8.10
2018-08-27T06:44:06.838Z,10.53
2018-08-27T06:46:35.174Z,8.30
2018-08-27T06:49:03.280Z,10.97
2018-08-27T06:51:31.729Z,9.07
2018-08-27T06:54:00.046Z,7.80
2018-08-27T06:56:29.621Z,5.77
2018-08-27T06:58:58.422Z,6.87
2018-08-27T07:01:27.160Z,14.40
2018-08-27T07:03:55.387Z,5.97
2018-08-27T07:06:23.613Z,10.93
2018-08-27T07:08:51.974Z,16.23
2018-08-27T07:11:20.197Z,7.13
2018-08-27T07:13:48.473Z,6.33
2018-08-27T07:16:16.786Z,8.23
2018-08-27T07:18:45.129Z,6.30
2018-08-27T07:21:13.410Z,8.60
2018-08-27T07:23:41.641Z,12.10
2018-08-27T07:26:09.869Z,7.07
2018-08-27T07:28:38.081Z,8.70
2018-08-27T07:31:06.317Z,7.90
2018-08-27T07:33:34.564Z,7.87
2018-08-27T07:36:02.839Z,9.63
2018-08-27T07:38:31.098Z,6.13
2018-08-27T07:40:59.353Z,6.17
2018-08-27T07:43:27.679Z,12.07
2018-08-27T07:45:55.861Z,9.37
2018-08-27T07:48:24.262Z,7.17
2018-08-27T07:50:52.511Z,6.80
2018-08-27T07:53:20.734Z,6.57
2018-08-27T07:55:48.986Z,9.87
2018-08-27T07:58:17.293Z,7.33
2018-08-27T08:00:45.529Z,6.10
2018-08-27T08:03:13.762Z,6.80
2018-08-27T08:05:42.038Z,8.57
2018-08-27T08:08:10.313Z,5.97
2018-08-27T08:10:38.516Z,10.57
2018-08-27T08:13:06.718Z,7.50
2018-08-27T08:15:35.017Z,6.30
2018-08-27T08:18:03.256Z,7.77
2018-08-27T08:20:31.501Z,7.60
2018-08-27T08:22:59.842Z,12.50
2018-08-27T08:25:28.913Z,7.67
2018-08-27T08:27:57.181Z,10.73
2018-08-27T08:30:25.391Z,8.97
2018-08-27T08:32:53.777Z,13.30
2018-08-27T08:35:21.998Z,9.40
2018-08-27T08:37:50.221Z,9.57
2018-08-27T08:40:18.486Z,8.13
2018-08-27T08:42:46.724Z,8.93
2018-08-27T08:45:14.990Z,9.97
2018-08-27T08:47:43.281Z,11.17
2018-08-27T08:50:11.532Z,9.83
2018-08-27T08:52:39.797Z,7.77
2018-08-27T08:55:08.058Z,8.27
2018-08-27T08:57:36.276Z,8.63
2018-08-27T09:00:04.562Z,6.93
2018-08-27T09:02:32.854Z,12.40
2018-08-27T09:05:01.096Z,9.27
2018-08-27T09:07:29.136Z,7.17
2018-08-27T09:09:57.366Z,12.93
2018-08-27T09:12:26.436Z,8.83
2018-08-27T09:14:54.654Z,9.47
2018-08-27T09:17:22.912Z,9.87
2018-08-27T09:19:51.718Z,10.67
2018-08-27T09:22:19.934Z,8.17
2018-08-27T09:24:48.161Z,10.60
2018-08-27T09:27:16.455Z,8.67
2018-08-27T09:29:44.754Z,8.03
2018-08-27T09:32:13.010Z,7.47
2018-08-27T09:34:41.332Z,10.63
2018-08-27T09:37:09.581Z,10.30
2018-08-27T09:39:37.814Z,6.63
2018-08-27T09:42:06.050Z,11.70
2018-08-27T09:44:34.610Z,8.10
2018-08-27T09:47:02.618Z,12.80
2018-08-27T09:49:30.646Z,4.43
2018-08-27T09:51:58.638Z,6.80
2018-08-27T09:54:26.894Z,8.57
2018-08-27T09:56:55.125Z,11.63
2018-08-27T09:59:23.854Z,6.60
2018-08-27T10:01:57.241Z,7.37
2018-08-27T10:04:25.461Z,8.40
2018-08-27T10:06:53.725Z,5.80
2018-08-27T10:09:22.049Z,8.00
2018-08-27T10:11:50.317Z,6.80
2018-08-27T10:14:19.073Z,6.43
2018-08-27T10:16:47.430Z,7.50
2018-08-27T10:19:15.729Z,5.07
2018-08-27T10:21:43.994Z,6.97
2018-08-27T10:24:12.221Z,5.43
2018-08-27T10:26:40.439Z,4.90
2018-08-27T10:29:08.663Z,8.03
2018-08-27T10:31:37.006Z,6.80
2018-08-27T10:34:05.238Z,7.50
2018-08-27T10:36:33.502Z,7.40
2018-08-27T10:39:01.770Z,9.50
2018-08-27T10:41:30.016Z,7.27
2018-08-27T10:43:58.245Z,10.20
2018-08-27T10:46:26.454Z,7.97
2018-08-27T10:48:54.673Z,7.90
2018-08-27T10:51:22.919Z,11.80
2018-08-27T10:53:51.161Z,6.37
2018-08-27T10:56:19.430Z,9.67
2018-08-27T10:58:47.707Z,10.27
2018-08-27T11:01:16.562Z,12.33
2018-08-27T11:03:44.846Z,8.30
2018-08-27T11:06:13.384Z,6.90
2018-08-27T11:08:41.639Z,11.47
2018-08-27T11:11:09.968Z,13.50
2018-08-27T11:13:38.302Z,11.37
2018-08-27T11:16:06.945Z,11.10
2018-08-27T11:18:35.040Z,8.03
2018-08-27T11:21:03.307Z,6.47
2018-08-27T11:23:31.539Z,8.57
2018-08-27T11:25:59.809Z,11.40
2018-08-27T11:28:28.021Z,7.07
2018-08-27T11:30:56.245Z,10.07
2018-08-27T11:33:26.395Z,8.73
2018-08-27T11:35:54.727Z,7.73
2018-08-27T11:38:28.641Z,8.57
2018-08-27T11:40:56.943Z,8.53
2018-08-27T11:43:25.932Z,9.53
2018-08-27T11:45:54.385Z,9.50
2018-08-27T11:48:23.752Z,10.30
2018-08-27T11:50:52.806Z,9.23
2018-08-27T11:53:24.349Z,9.83
2018-08-27T11:55:52.863Z,6.93
2018-08-27T11:58:21.280Z,9.63
2018-08-27T12:00:57.705Z,8.03
2018-08-27T12:03:25.998Z,9.20
2018-08-27T12:05:54.335Z,9.40
2018-08-27T12:08:22.581Z,5.97
2018-08-27T12:10:50.853Z,10.77
2018-08-27T12:13:19.213Z,8.37
2018-08-27T12:15:47.442Z,7.07
2018-08-27T12:18:15.729Z,8.03
2018-08-27T12:20:43.957Z,11.60
2018-08-27T12:23:11.948Z,10.77
2018-08-27T12:25:40.158Z,6.97
2018-08-27T12:28:08.168Z,8.00
2018-08-27T12:30:36.130Z,5.93
2018-08-27T12:33:04.131Z,8.03
2018-08-27T12:35:32.177Z,7.70
2018-08-27T12:38:00.509Z,11.20
2018-08-27T12:40:28.494Z,10.50
2018-08-27T12:42:56.453Z,9.20
2018-08-27T12:45:24.446Z,8.97
2018-08-27T12:47:52.411Z,11.27
2018-08-27T12:50:20.369Z,7.33
2018-08-27T12:52:48.397Z,8.63
2018-08-27T12:55:16.457Z,10.80
2018-08-27T12:57:44.755Z,8.33
2018-08-27T13:00:15.510Z,9.43
2018-08-27T13:02:44.219Z,8.93
2018-08-27T13:05:12.364Z,9.10
2018-08-27T13:07:41.100Z,11.03
2018-08-27T13:10:09.021Z,8.80
2018-08-27T13:12:37.094Z,9.77
2018-08-27T13:15:05.205Z,9.37
2018-08-27T13:17:33.168Z,8.00
2018-08-27T13:20:01.217Z,7.30
2018-08-27T13:22:31.109Z,7.60
2018-08-27T13:24:59.645Z,7.37
2018-08-27T13:27:27.645Z,7.83
2018-08-27T13:29:55.857Z,9.67
2018-08-27T13:32:23.829Z,9.43
2018-08-27T13:34:51.822Z,36.67
2018-08-27T13:37:19.827Z,11.07
2018-08-27T13:39:48.241Z,7.87
2018-08-27T13:42:16.462Z,8.40
2018-08-27T13:44:44.449Z,8.23
2018-08-27T13:47:12.461Z,5.60
2018-08-27T13:49:40.467Z,6.93
2018-08-27T13:52:08.438Z,7.50
2018-08-27T13:54:36.480Z,6.13
2018-08-27T13:57:04.542Z,8.90
2018-08-27T13:59:32.531Z,7.23
2018-08-27T14:02:00.820Z,6.80
2018-08-27T14:04:28.845Z,6.27
2018-08-27T14:06:56.858Z,9.40
2018-08-27T14:09:25.257Z,6.83
2018-08-27T14:11:53.407Z,6.97
2018-08-27T14:14:22.527Z,6.10
2018-08-27T14:16:50.973Z,6.67
2018-08-27T14:19:19.315Z,9.37
2018-08-27T14:21:47.558Z,6.57
2018-08-27T14:24:15.777Z,6.10
2018-08-27T14:26:44.066Z,8.07
2018-08-27T14:29:12.286Z,3.70
2018-08-27T14:31:40.753Z,4.77
2018-08-27T14:34:08.760Z,5.13
2018-08-27T14:36:37.013Z,6.00
2018-08-27T14:39:07.995Z,6.30
2018-08-27T14:41:36.165Z,4.90
2018-08-27T14:44:04.406Z,6.50
2018-08-27T14:46:32.659Z,4.17
2018-08-27T14:49:00.790Z,4.20
2018-08-27T14:51:29.016Z,6.03
2018-08-27T14:53:57.273Z,3.20
2018-08-27T14:56:25.546Z,4.07
2018-08-27T14:58:53.751Z,3.30
2018-08-27T15:01:22.401Z,4.50
2018-08-27T15:03:50.627Z,6.23
2018-08-27T15:06:18.909Z,4.53
2018-08-27T15:08:47.121Z,6.30
2018-08-27T15:11:15.466Z,4.23
2018-08-27T15:13:43.452Z,5.60
2018-08-27T15:16:11.459Z,3.07
2018-08-27T15:18:39.524Z,3.90
2018-08-27T15:21:07.637Z,3.30
2018-08-27T15:23:36.018Z,6.40
2018-08-27T15:26:04.324Z,3.97
2018-08-27T15:28:32.650Z,5.90
2018-08-27T15:31:25.782Z,3.90
2018-08-27T15:33:54.475Z,5.70
2018-08-27T15:36:22.775Z,2.33
2018-08-27T15:38:51.249Z,5.67
2018-08-27T15:41:19.224Z,3.40
2018-08-27T15:43:47.343Z,2.77
2018-08-27T15:46:20.745Z,3.17
2018-08-27T15:48:48.754Z,3.73
2018-08-27T15:51:16.996Z,4.30
2018-08-27T15:53:45.277Z,7.00
2018-08-27T15:56:13.469Z,3.63
2018-08-27T15:58:41.733Z,4.30
2018-08-27T16:01:12.598Z,2.33
2018-08-27T16:03:41.741Z,3.90
2018-08-27T16:06:10.935Z,4.20
2018-08-27T16:08:39.167Z,3.90
2018-08-27T16:11:07.418Z,5.90
2018-08-27T16:13:36.306Z,3.63
2018-08-27T16:16:04.687Z,3.17
2018-08-27T16:18:32.977Z,4.27
2018-08-27T16:21:00.947Z,6.00
2018-08-27T16:23:29.334Z,5.47
2018-08-27T16:25:57.737Z,5.00
2018-08-27T16:28:25.973Z,4.30
2018-08-27T16:30:54.265Z,3.53
2018-08-27T16:33:22.500Z,3.03
2018-08-27T16:35:51.346Z,1.93
2018-08-27T16:38:19.630Z,3.63
2018-08-27T16:40:47.977Z,5.10
2018-08-27T16:43:16.245Z,4.30
2018-08-27T16:45:44.505Z,4.67
2018-08-27T16:48:12.754Z,8.57
2018-08-27T16:50:41.003Z,3.90
2018-08-27T16:53:09.210Z,3.10
2018-08-27T16:55:37.486Z,3.57
2018-08-27T16:58:05.733Z,5.67
2018-08-27T17:00:34.254Z,3.80
2018-08-27T17:03:02.506Z,3.23
2018-08-27T17:05:30.763Z,4.20
2018-08-27T17:07:59.076Z,6.10
2018-08-27T17:10:27.428Z,4.43
2018-08-27T17:12:55.618Z,6.23
2018-08-27T17:15:23.884Z,4.30
2018-08-27T17:17:52.255Z,5.57
2018-08-27T17:20:20.270Z,5.60
2018-08-27T17:22:48.627Z,5.07
2018-08-27T17:25:16.946Z,2.77
2018-08-27T17:27:45.152Z,2.50
2018-08-27T17:30:13.137Z,3.10
2018-08-27T17:32:41.098Z,3.83
2018-08-27T17:35:09.271Z,5.87
2018-08-27T17:37:37.249Z,4.37
2018-08-27T17:40:05.586Z,7.87
2018-08-27T17:42:33.572Z,3.10
2018-08-27T17:45:01.670Z,2.50
2018-08-27T17:47:29.785Z,3.73
2018-08-27T17:49:57.805Z,3.60
2018-08-27T17:52:25.766Z,5.10
2018-08-27T17:54:53.843Z,3.40
2018-08-27T17:57:21.849Z,4.03
2018-08-27T17:59:49.935Z,3.83
2018-08-27T18:02:17.958Z,4.00
2018-08-27T18:04:45.955Z,5.70
2018-08-27T18:07:14.079Z,5.97
2018-08-27T18:09:42.049Z,4.77
2018-08-27T18:12:10.024Z,5.37
2018-08-27T18:14:37.985Z,4.83
2018-08-27T18:17:06.022Z,5.17
2018-08-27T18:19:34.085Z,4.50
2018-08-27T18:22:02.053Z,3.17
2018-08-27T18:24:30.278Z,5.27
2018-08-27T18:26:58.553Z,3.33
2018-08-27T18:29:26.843Z,3.70
2018-08-27T18:31:55.394Z,5.30
2018-08-27T18:34:23.700Z,2.20
2018-08-27T18:36:51.943Z,3.70
2018-08-27T18:39:20.175Z,3.80
2018-08-27T18:41:48.406Z,5.00
2018-08-27T18:44:16.776Z,5.20
2018-08-27T18:46:44.976Z,4.43
2018-08-27T18:49:13.320Z,3.53
2018-08-27T18:51:41.621Z,5.50
2018-08-27T18:54:09.874Z,3.33
2018-08-27T18:56:38.106Z,4.30
2018-08-27T18:59:06.356Z,4.77
2018-08-27T19:01:41.440Z,3.70
2018-08-27T19:04:09.679Z,6.03
2018-08-27T19:06:37.929Z,3.97
2018-08-27T19:09:07.137Z,4.37
2018-08-27T19:11:35.646Z,11.70
2018-08-27T19:14:04.375Z,12.50
2018-08-27T19:16:32.581Z,14.87
2018-08-27T19:19:00.858Z,12.87
2018-08-27T19:21:29.151Z,5.80
2018-08-27T19:23:57.418Z,4.33
2018-08-27T19:26:26.273Z,7.00
2018-08-27T19:28:54.534Z,5.73
2018-08-27T19:31:22.735Z,4.13
2018-08-27T19:33:51.018Z,6.07
2018-08-27T19:36:19.598Z,3.60
2018-08-27T19:38:47.750Z,6.43
2018-08-27T19:41:15.995Z,8.47
2018-08-27T19:43:44.261Z,3.70
2018-08-27T19:46:12.679Z,5.30
2018-08-27T19:48:40.849Z,5.50
2018-08-27T19:51:09.073Z,5.97
2018-08-27T19:53:37.347Z,4.20
2018-08-27T19:56:05.610Z,4.77
2018-08-27T19:58:33.964Z,8.37
2018-08-27T20:01:02.299Z,4.80
2018-08-27T20:03:30.562Z,5.97
2018-08-27T20:05:58.850Z,5.33
2018-08-27T20:08:27.105Z,5.10
2018-08-27T20:10:55.385Z,4.10
2018-08-27T20:13:23.617Z,9.00
2018-08-27T20:15:51.880Z,5.40
2018-08-27T20:18:20.161Z,3.40
2018-08-27T20:20:48.369Z,6.80
2018-08-27T20:23:16.816Z,4.83
2018-08-27T20:25:45.250Z,3.83
2018-08-27T20:28:13.410Z,3.80
2018-08-27T20:30:41.745Z,5.43
2018-08-27T20:33:10.059Z,3.93
2018-08-27T20:35:38.963Z,5.15
2018-08-27T20:38:07.112Z,5.58
2018-08-27T20:40:35.113Z,5.67
2018-08-27T20:43:03.227Z,7.23
2018-08-27T20:45:31.282Z,4.77
2018-08-27T20:47:59.281Z,5.30
2018-08-27T20:50:27.569Z,6.07
2018-08-27T20:52:55.619Z,5.23
2018-08-27T20:55:23.617Z,5.37
2018-08-27T20:57:51.861Z,6.40
2018-08-27T21:00:19.953Z,6.33
2018-08-27T21:02:48.217Z,6.37
2018-08-27T21:05:16.213Z,6.10
2018-08-27T21:07:44.429Z,5.40
2018-08-27T21:10:12.560Z,5.03
2018-08-27T21:12:40.388Z,6.93
2018-08-27T21:15:15.331Z,5.10
2018-08-27T21:17:45.666Z,5.50
2018-08-27T21:20:14.728Z,7.27
2018-08-27T21:22:43.040Z,8.93
2018-08-27T21:25:12.173Z,5.40
2018-08-27T21:27:40.689Z,6.03
2018-08-27T21:30:11.817Z,7.37
2018-08-27T21:32:40.146Z,6.70
2018-08-27T21:35:08.406Z,7.50
2018-08-27T21:37:36.438Z,13.30
2018-08-27T21:40:04.749Z,7.47
2018-08-27T21:42:32.999Z,5.00
2018-08-27T21:45:01.006Z,4.70
2018-08-27T21:47:29.189Z,7.97
2018-08-27T21:49:57.157Z,6.67
2018-08-27T21:52:25.295Z,5.73
2018-08-27T21:54:53.280Z,6.40
2018-08-27T21:57:21.540Z,5.53
2018-08-27T21:59:49.523Z,7.57
2018-08-27T22:02:23.381Z,4.83
2018-08-27T22:04:51.625Z,8.70
2018-08-27T22:07:19.861Z,11.20
2018-08-27T22:09:48.109Z,7.20
2018-08-27T22:12:16.103Z,3.97
2018-08-27T22:14:44.097Z,5.53
2018-08-27T22:17:12.353Z,6.20
2018-08-27T22:19:40.632Z,5.50
2018-08-27T22:22:08.963Z,10.30
2018-08-27T22:24:37.277Z,7.17
2018-08-27T22:27:05.737Z,3.70
2018-08-27T22:29:34.005Z,5.37
2018-08-27T22:32:01.988Z,7.73
2018-08-27T22:34:30.205Z,6.90
2018-08-27T22:36:58.453Z,5.23
2018-08-27T22:39:26.783Z,5.77
2018-08-27T22:41:55.639Z,7.80
2018-08-27T22:44:23.853Z,6.90
2018-08-27T22:46:51.874Z,6.40
2018-08-27T22:49:20.141Z,7.20
2018-08-27T22:51:48.168Z,7.70
2018-08-27T22:54:16.278Z,4.90
2018-08-27T22:56:44.485Z,6.77
2018-08-27T22:59:12.758Z,5.10
2018-08-27T23:01:41.031Z,6.77
2018-08-27T23:04:14.712Z,4.33
2018-08-27T23:06:42.722Z,6.83
2018-08-27T23:09:10.974Z,5.57
2018-08-27T23:11:39.417Z,6.83
2018-08-27T23:14:07.420Z,5.07
2018-08-27T23:16:42.306Z,4.30
2018-08-27T23:19:10.352Z,4.20
2018-08-27T23:21:38.832Z,5.10
2018-08-27T23:24:07.125Z,4.43
2018-08-27T23:26:35.396Z,4.50
2018-08-27T23:29:03.392Z,4.43
2018-08-27T23:31:31.407Z,6.00
2018-08-27T23:33:59.705Z,6.40
2018-08-27T23:36:27.673Z,4.63
2018-08-27T23:38:55.897Z,5.67
2018-08-27T23:41:24.146Z,6.27
2018-08-27T23:43:52.410Z,6.20
2018-08-27T23:46:20.683Z,5.57
2018-08-27T23:48:48.918Z,5.00
2018-08-27T23:51:17.185Z,5.23
2018-08-27T23:53:45.186Z,7.90
2018-08-27T23:56:13.397Z,11.07
2018-08-27T23:58:41.706Z,6.47
